Time;durP1;ratioP1;P1;durP2;ratioP2;P2;SDS_P1;SDS_P2;PMS_P1;PMS_P2;Temp;Humidity;BMP_temperature;BMP_pressure;BME280_temperature;BME280_humidity;BME280_pressure;Samples;Min_cycle;Max_cycle;Signal;HPM_P1;HPM_P2
2021/05/28 00:01:14;;;;;;;;;;;8.30;95.00;;;;;;5094718;28;20063;-34
2021/05/28 00:03:40;;;;;;;10.60;4.93;;;8.30;95.00;;;;;;5094263;28;19914;-36
2021/05/28 00:06:06;;;;;;;10.85;4.45;;;8.30;94.90;;;;;;5093924;28;20103;-34
2021/05/28 00:08:32;;;;;;;11.50;5.28;;;8.40;95.00;;;;;;5094019;28;20020;-35
2021/05/28 00:10:58;;;;;;;9.07;4.53;;;8.50;95.00;;;;;;5094154;28;20483;-35
2021/05/28 00:13:24;;;;;;;7.80;4.35;;;8.50;94.90;;;;;;5094076;28;20534;-36
2021/05/28 00:15:50;;;;;;;12.90;4.78;;;8.60;94.80;;;;;;5093956;28;20024;-35
2021/05/28 00:18:15;;;;;;;6.45;4.85;;;8.70;94.70;;;;;;5094122;28;20360;-34
2021/05/28 00:20:41;;;;;;;8.60;4.65;;;8.80;94.50;;;;;;5094485;28;20024;-35
2021/05/28 00:23:07;;;;;;;14.63;5.80;;;8.90;94.40;;;;;;5094015;28;20121;-35
2021/05/28 00:25:32;;;;;;;17.02;5.95;;;9.10;93.90;;;;;;5093836;28;20032;-35
2021/05/28 00:27:58;;;;;;;8.23;4.68;;;9.10;93.70;;;;;;5093717;28;20020;-35
2021/05/28 00:30:24;;;;;;;13.25;5.70;;;9.20;93.50;;;;;;5094041;28;20107;-35
2021/05/28 00:32:49;;;;;;;12.15;5.00;;;9.10;93.40;;;;;;5093699;28;20034;-35
2021/05/28 00:35:17;;;;;;;10.68;5.05;;;9.20;93.40;;;;;;5094056;28;20493;-35
2021/05/28 00:37:43;;;;;;;9.18;4.72;;;9.20;93.00;;;;;;5093674;28;20070;-37
2021/05/28 00:40:09;;;;;;;10.27;4.97;;;9.20;93.10;;;;;;5092222;28;20025;-34
2021/05/28 00:42:35;;;;;;;11.98;4.50;;;9.20;92.80;;;;;;5093702;28;20353;-35
2021/05/28 00:45:01;;;;;;;6.68;3.85;;;9.10;92.90;;;;;;5093716;28;20026;-36
2021/05/28 00:47:26;;;;;;;8.05;4.93;;;8.90;93.30;;;;;;5095455;28;20051;-36
2021/05/28 00:49:52;;;;;;;7.60;4.35;;;9.00;93.50;;;;;;5097680;28;20031;-35
2021/05/28 00:52:18;;;;;;;15.45;5.35;;;9.00;93.60;;;;;;5096902;28;20020;-36
2021/05/28 00:54:44;;;;;;;16.38;6.00;;;9.00;93.70;;;;;;5097148;28;20020;-37
2021/05/28 00:57:10;;;;;;;11.05;5.22;;;9.10;93.40;;;;;;5095358;28;20495;-36
2021/05/28 00:59:39;;;;;;;10.77;5.68;;;9.20;93.20;;;;;;5096464;28;20046;-36
2021/05/28 01:02:05;;;;;;;10.55;5.57;;;9.30;92.80;;;;;;5095176;28;20484;-36
2021/05/28 01:04:31;;;;;;;12.27;6.60;;;9.30;92.90;;;;;;5096185;28;20024;-36
2021/05/28 01:06:56;;;;;;;13.40;6.13;;;9.40;92.80;;;;;;5097102;28;20112;-35
2021/05/28 01:09:22;;;;;;;14.05;5.63;;;9.30;92.60;;;;;;5096441;28;20020;-35
2021/05/28 01:11:48;;;;;;;13.15;6.20;;;9.30;92.60;;;;;;5096347;28;20028;-35
2021/05/28 01:14:13;;;;;;;11.23;5.85;;;9.40;92.40;;;;;;5096014;28;20016;-36
2021/05/28 01:16:39;;;;;;;7.60;5.70;;;9.30;92.70;;;;;;5096164;28;20028;-36
2021/05/28 01:19:05;;;;;;;12.65;5.22;;;9.30;92.90;;;;;;5096283;28;20028;-36
2021/05/28 01:21:31;;;;;;;12.32;5.72;;;9.40;92.70;;;;;;5095866;28;20024;-36
2021/05/28 01:23:56;;;;;;;14.50;6.28;;;9.30;92.50;;;;;;5095791;28;20490;-34
2021/05/28 01:26:22;;;;;;;15.65;5.65;;;9.20;93.00;;;;;;5095891;28;20024;-35
2021/05/28 01:28:48;;;;;;;10.38;5.55;;;9.20;93.10;;;;;;5077659;28;20058;-35
2021/05/28 01:31:14;;;;;;;14.90;5.88;;;9.10;93.00;;;;;;5096144;28;20049;-35
2021/05/28 01:33:44;;;;;;;15.10;6.55;;;9.00;93.20;;;;;;5095735;28;20028;-35
2021/05/28 01:36:10;;;;;;;12.73;6.20;;;8.90;93.30;;;;;;5095853;28;20020;-35
2021/05/28 01:38:36;;;;;;;10.25;6.30;;;8.80;93.60;;;;;;5095450;28;20464;-36
2021/05/28 01:41:03;;;;;;;18.58;7.32;;;8.80;93.60;;;;;;5095404;28;20039;-34
2021/05/28 01:43:30;;;;;;;12.60;7.05;;;8.80;93.70;;;;;;5095696;28;20077;-34
2021/05/28 01:45:56;;;;;;;19.05;9.05;;;8.70;93.80;;;;;;5095610;28;20492;-35
2021/05/28 01:48:22;;;;;;;26.90;9.55;;;8.70;94.20;;;;;;5095359;28;20356;-34
2021/05/28 01:50:48;;;;;;;18.20;7.63;;;8.60;94.30;;;;;;5095272;28;20024;-34
2021/05/28 01:53:17;;;;;;;14.82;6.93;;;8.60;94.10;;;;;;5095364;28;20044;-34
2021/05/28 01:55:44;;;;;;;18.08;9.15;;;8.60;94.10;;;;;;5095012;28;20055;-35
2021/05/28 01:58:12;;;;;;;18.08;8.43;;;8.60;94.10;;;;;;5093685;28;20079;-35
2021/05/28 02:00:39;;;;;;;18.25;9.80;;;8.40;94.10;;;;;;5094083;28;20032;-36
2021/05/28 02:03:05;;;;;;;28.48;9.10;;;8.40;94.40;;;;;;5095235;28;20093;-35
2021/05/28 02:05:35;;;;;;;17.25;9.38;;;8.40;94.40;;;;;;5094759;28;20020;-34
2021/05/28 02:08:02;;;;;;;14.70;7.63;;;8.40;94.40;;;;;;5095059;28;20012;-35
2021/05/28 02:10:29;;;;;;;18.55;8.40;;;8.30;94.50;;;;;;5095131;28;20331;-36
2021/05/28 02:12:55;;;;;;;16.27;7.53;;;8.30;94.60;;;;;;5095044;28;20515;-36
2021/05/28 02:15:20;;;;;;;18.45;7.68;;;8.30;94.70;;;;;;5095092;28;20051;-35
2021/05/28 02:17:46;;;;;;;13.93;7.85;;;8.30;94.90;;;;;;5094954;28;20103;-34
2021/05/28 02:20:13;;;;;;;13.27;6.22;;;8.20;95.00;;;;;;5093680;28;20020;-34
2021/05/28 02:22:39;;;;;;;20.52;7.10;;;8.10;95.00;;;;;;5094622;28;20111;-34
2021/05/28 02:25:06;;;;;;;23.27;7.70;;;8.10;95.10;;;;;;5094531;28;20055;-34
2021/05/28 02:27:32;;;;;;;9.75;6.07;;;8.00;95.20;;;;;;5094422;28;20403;-34
2021/05/28 02:29:58;;;;;;;15.70;7.63;;;8.00;95.30;;;;;;5094843;28;20013;-35
2021/05/28 02:32:24;;;;;;;16.75;7.35;;;8.00;95.30;;;;;;5093126;28;20098;-35
2021/05/28 02:34:50;;;;;;;16.70;8.45;;;8.00;95.20;;;;;;5094316;28;20034;-35
2021/05/28 02:37:15;;;;;;;22.67;11.80;;;7.90;95.10;;;;;;5094413;28;20016;-34
2021/05/28 02:39:41;;;;;;;20.88;9.40;;;7.90;95.20;;;;;;5093480;28;20078;-35
2021/05/28 02:42:07;;;;;;;18.75;9.48;;;7.90;95.30;;;;;;5094483;28;20025;-35
2021/05/28 02:44:33;;;;;;;18.15;10.10;;;7.80;95.30;;;;;;5094242;28;20073;-35
2021/05/28 02:46:58;;;;;;;18.88;11.05;;;7.80;95.30;;;;;;5094209;28;20024;-36
2021/05/28 02:49:24;;;;;;;22.98;10.35;;;7.80;95.40;;;;;;5093870;28;20058;-34
2021/05/28 02:51:50;;;;;;;15.80;8.43;;;7.80;95.50;;;;;;5093913;28;20020;-36
2021/05/28 02:54:16;;;;;;;22.02;9.30;;;7.80;95.60;;;;;;5094076;28;20020;-35
2021/05/28 02:56:42;;;;;;;15.20;9.10;;;7.60;95.60;;;;;;5093841;28;20048;-34
2021/05/28 02:59:07;;;;;;;19.85;8.32;;;7.70;95.80;;;;;;5093784;28;20073;-36
2021/05/28 03:01:33;;;;;;;16.15;7.30;;;7.60;95.70;;;;;;5094010;28;20099;-35
2021/05/28 03:03:58;;;;;;;13.93;7.57;;;7.60;95.60;;;;;;5094077;28;20028;-35
2021/05/28 03:06:24;;;;;;;9.35;6.00;;;7.50;95.50;;;;;;5093719;28;20118;-35
2021/05/28 03:08:50;;;;;;;11.68;6.60;;;7.40;95.40;;;;;;5093758;28;20495;-34
2021/05/28 03:11:15;;;;;;;15.38;7.50;;;7.40;95.50;;;;;;5093421;28;20027;-35
2021/05/28 03:13:41;;;;;;;35.13;9.70;;;7.40;95.40;;;;;;5093687;28;20028;-35
2021/05/28 03:16:07;;;;;;;13.85;9.07;;;7.60;95.30;;;;;;5093915;28;20389;-35
2021/05/28 03:18:46;;;;;;;29.55;9.95;;;7.40;95.20;;;;;;5093786;28;20028;-34
2021/05/28 03:22:31;;;;;;;19.35;8.25;;;7.40;95.40;;;;;;5093820;28;20034;-36
2021/05/28 03:24:05;;;;;;;27.27;9.77;;;7.30;95.60;;;;;;5091209;28;20043;-36
2021/05/28 03:26:31;;;;;;;43.38;13.80;;;7.40;95.70;;;;;;5093354;28;20476;-34
2021/05/28 03:28:59;;;;;;;30.73;12.50;;;7.40;95.70;;;;;;5093604;28;20026;-34
2021/05/28 03:31:25;;;;;;;48.95;14.15;;;7.40;95.80;;;;;;5093492;28;20416;-34
2021/05/28 03:33:51;;;;;;;36.15;14.45;;;7.60;96.10;;;;;;5093316;28;20102;-34
2021/05/28 03:36:18;;;;;;;45.95;16.33;;;7.80;95.80;;;;;;5093461;28;20077;-36
2021/05/28 03:38:44;;;;;;;48.10;17.52;;;7.80;95.50;;;;;;5093172;28;20028;-35
2021/05/28 03:41:10;;;;;;;78.68;19.35;;;7.80;95.40;;;;;;5093127;28;20028;-35
2021/05/28 03:43:36;;;;;;;140.85;25.00;;;7.80;95.60;;;;;;5092963;28;20032;-35
2021/05/28 03:46:03;;;;;;;161.80;26.38;;;7.80;95.60;;;;;;5093197;28;20107;-34
2021/05/28 03:48:29;;;;;;;176.10;29.08;;;7.80;95.60;;;;;;5092964;28;20028;-35
2021/05/28 03:50:55;;;;;;;200.85;30.50;;;7.80;95.70;;;;;;5093163;28;20077;-35
2021/05/28 03:53:21;;;;;;;121.55;29.92;;;7.80;95.70;;;;;;5093327;28;20027;-35
2021/05/28 03:55:47;;;;;;;412.23;48.40;;;7.80;95.40;;;;;;5091809;28;20048;-36
2021/05/28 03:58:12;;;;;;;170.30;33.75;;;7.90;95.60;;;;;;5092019;28;20062;-35
2021/05/28 04:00:38;;;;;;;225.93;40.65;;;7.90;95.50;;;;;;5093426;28;20396;-34
2021/05/28 04:03:04;;;;;;;155.70;35.30;;;8.10;95.50;;;;;;5093337;28;20028;-35
2021/05/28 04:05:30;;;;;;;170.02;34.83;;;8.10;95.20;;;;;;5093749;28;20410;-35
2021/05/28 04:07:55;;;;;;;193.70;42.13;;;8.20;95.30;;;;;;5092084;28;20016;-35
2021/05/28 04:10:21;;;;;;;137.93;33.03;;;8.10;95.10;;;;;;5093269;28;20027;-35
2021/05/28 04:12:47;;;;;;;185.35;36.92;;;8.30;94.90;;;;;;5091946;28;20027;-35
2021/05/28 04:15:13;;;;;;;174.60;37.45;;;8.20;94.80;;;;;;5093334;28;20414;-34
2021/05/28 04:17:38;;;;;;;173.93;36.13;;;8.20;95.00;;;;;;5093437;28;20047;-35
2021/05/28 04:20:05;;;;;;;214.52;38.63;;;8.20;95.00;;;;;;5091818;28;20068;-35
2021/05/28 04:22:31;;;;;;;189.57;35.92;;;8.10;94.90;;;;;;5096590;28;20032;-35
2021/05/28 04:24:57;;;;;;;141.52;36.92;;;7.90;95.20;;;;;;5097040;28;20081;-34
2021/05/28 04:27:22;;;;;;;260.60;46.10;;;8.10;95.40;;;;;;5097328;28;20024;-35
2021/05/28 04:29:48;;;;;;;166.02;41.67;;;8.30;95.10;;;;;;5097174;28;20468;-36
2021/05/28 04:32:14;;;;;;;171.18;40.67;;;8.50;94.30;;;;;;5095813;28;20095;-36
2021/05/28 04:34:40;;;;;;;174.38;38.85;;;8.40;93.70;;;;;;5096816;28;20024;-35
2021/05/28 04:37:07;;;;;;;186.55;39.88;;;8.50;93.70;;;;;;5097180;28;20028;-35
2021/05/28 04:39:32;;;;;;;174.68;41.05;;;8.40;93.30;;;;;;5097002;28;20032;-36
2021/05/28 04:41:58;;;;;;;118.65;32.90;;;8.30;93.60;;;;;;5097033;28;20024;-35
2021/05/28 04:44:24;;;;;;;97.45;32.00;;;8.30;93.90;;;;;;5096803;28;20024;-35
2021/05/28 04:46:50;;;;;;;111.78;29.90;;;8.50;94.10;;;;;;5096753;28;20138;-34
2021/05/28 04:49:15;;;;;;;111.68;30.98;;;8.50;93.60;;;;;;5096624;28;20020;-35
2021/05/28 04:51:41;;;;;;;66.72;31.25;;;8.70;93.20;;;;;;5096297;28;20077;-35
2021/05/28 04:54:07;;;;;;;74.30;32.00;;;8.50;92.70;;;;;;5096385;28;20016;-35
2021/05/28 04:56:33;;;;;;;68.95;26.15;;;8.40;93.30;;;;;;5096140;28;20420;-35
2021/05/28 04:58:59;;;;;;;137.85;27.83;;;8.50;93.50;;;;;;5096531;28;20475;-35
2021/05/28 05:01:25;;;;;;;77.95;24.27;;;8.50;92.90;;;;;;5096429;28;20078;-35
2021/05/28 05:03:52;;;;;;;82.93;26.52;;;8.30;93.40;;;;;;5096653;28;20052;-34
2021/05/28 05:06:17;;;;;;;55.80;22.33;;;8.30;93.50;;;;;;5096102;28;20518;-34
2021/05/28 05:08:43;;;;;;;65.22;24.67;;;8.30;93.70;;;;;;5096318;28;20056;-35
2021/05/28 05:11:09;;;;;;;71.38;23.58;;;8.30;93.60;;;;;;5094780;28;20024;-35
2021/05/28 05:13:35;;;;;;;80.60;25.13;;;8.30;93.60;;;;;;5094885;28;20077;-35
2021/05/28 05:16:00;;;;;;;80.63;24.98;;;8.30;93.60;;;;;;5094600;28;20111;-35
2021/05/28 05:18:26;;;;;;;75.43;26.95;;;8.40;93.00;;;;;;5077825;28;20147;-35
2021/05/28 05:20:52;;;;;;;60.58;27.83;;;8.60;93.10;;;;;;5095996;28;20028;-35
2021/05/28 05:23:18;;;;;;;110.20;25.85;;;8.50;92.10;;;;;;5095919;28;20031;-35
2021/05/28 05:25:44;;;;;;;74.07;26.58;;;8.40;92.80;;;;;;5094304;28;20040;-40
2021/05/28 05:28:10;;;;;;;73.15;28.50;;;8.80;92.10;;;;;;5095727;28;20035;-36
2021/05/28 05:30:36;;;;;;;59.78;27.92;;;8.70;91.70;;;;;;5095474;28;20464;-36
2021/05/28 05:33:02;;;;;;;68.40;26.92;;;8.50;92.10;;;;;;5094936;28;20024;-34
2021/05/28 05:35:28;;;;;;;190.95;31.42;;;8.20;92.60;;;;;;5094335;28;20024;-34
2021/05/28 05:37:53;;;;;;;85.22;31.65;;;8.30;93.20;;;;;;5095567;28;20032;-35
2021/05/28 05:40:19;;;;;;;98.43;30.55;;;8.10;93.50;;;;;;5093961;28;20059;-35
2021/05/28 05:42:45;;;;;;;140.73;32.72;;;8.30;93.90;;;;;;5095214;28;20047;-35
2021/05/28 05:45:13;;;;;;;113.38;31.60;;;8.30;93.20;;;;;;5095077;28;20491;-36
2021/05/28 05:47:40;;;;;;;92.18;30.92;;;8.50;92.90;;;;;;5094960;28;20028;-35
2021/05/28 05:50:07;;;;;;;94.20;34.33;;;8.80;92.30;;;;;;5095204;28;20020;-35
2021/05/28 05:52:33;;;;;;;95.13;31.63;;;8.90;90.90;;;;;;5077041;28;20024;-35
2021/05/28 05:54:59;;;;;;;92.30;30.13;;;8.70;91.70;;;;;;5093443;28;20185;-36
2021/05/28 05:57:25;;;;;;;186.85;30.50;;;8.80;91.60;;;;;;5094808;28;20058;-35
2021/05/28 05:59:50;;;;;;;68.43;30.35;;;8.80;91.10;;;;;;5094972;28;20028;-34
2021/05/28 06:02:16;;;;;;;80.13;29.55;;;9.00;91.00;;;;;;5095457;28;20104;-36
2021/05/28 06:04:42;;;;;;;86.68;34.35;;;9.00;90.60;;;;;;5093673;28;20028;-35
2021/05/28 06:07:07;;;;;;;76.00;30.13;;;8.80;91.50;;;;;;5093325;28;20202;-36
2021/05/28 06:09:33;;;;;;;73.00;30.05;;;8.90;91.70;;;;;;5093425;28;20031;-34
2021/05/28 06:11:59;;;;;;;75.07;30.42;;;9.40;90.20;;;;;;5094797;28;20047;-35
2021/05/28 06:14:26;;;;;;;68.35;29.08;;;9.40;89.70;;;;;;5094840;28;20498;-35
2021/05/28 06:16:52;;;;;;;76.50;30.83;;;9.40;89.40;;;;;;5094581;28;20028;-36
2021/05/28 06:19:18;;;;;;;60.72;27.60;;;9.20;90.10;;;;;;5095617;28;20032;-36
2021/05/28 06:21:44;;;;;;;72.22;28.65;;;9.20;90.70;;;;;;5095100;28;20042;-36
2021/05/28 06:24:09;;;;;;;77.00;31.55;;;9.20;90.50;;;;;;5094497;28;20024;-36
2021/05/28 06:26:35;;;;;;;78.00;29.42;;;9.30;90.10;;;;;;5094229;28;20024;-35
2021/05/28 06:29:06;;;;;;;68.03;29.42;;;9.20;90.20;;;;;;5094585;28;20489;-35
2021/05/28 06:31:32;;;;;;;;;;;9.50;90.20;;;;;;5095194;28;20352;-35
2021/05/28 06:33:57;;;;;;;73.68;30.45;;;9.60;89.00;;;;;;5094667;28;20003;-36
2021/05/28 06:36:23;;;;;;;77.22;31.20;;;9.60;88.20;;;;;;5094143;28;20059;-36
2021/05/28 06:38:49;;;;;;;71.63;29.77;;;9.30;89.20;;;;;;5094291;28;20492;-35
2021/05/28 06:41:14;;;;;;;73.80;32.15;;;9.20;89.80;;;;;;5094342;28;20024;-36
2021/05/28 06:43:40;;;;;;;85.13;35.03;;;9.20;90.20;;;;;;5094019;28;20495;-35
2021/05/28 06:46:06;;;;;;;79.43;33.20;;;9.50;89.50;;;;;;5092904;28;20035;-36
2021/05/28 06:48:31;;;;;;;93.32;34.83;;;9.50;89.30;;;;;;5093913;28;20039;-36
2021/05/28 06:50:57;;;;;;;80.93;33.08;;;9.30;90.30;;;;;;5093315;28;20024;-37
2021/05/28 06:53:23;;;;;;;69.15;31.88;;;9.70;88.70;;;;;;5093350;28;20016;-36
2021/05/28 06:55:49;;;;;;;65.25;31.85;;;9.70;88.40;;;;;;5093723;28;20418;-36
2021/05/28 06:58:16;;;;;;;64.05;30.92;;;9.70;87.40;;;;;;5094156;28;20024;-37
2021/05/28 07:00:42;;;;;;;64.30;31.30;;;9.70;88.00;;;;;;5093735;28;20052;-35
2021/05/28 07:03:07;;;;;;;65.25;30.50;;;9.80;88.20;;;;;;5093394;28;20545;-35
2021/05/28 07:05:33;;;;;;;69.60;33.13;;;9.80;87.30;;;;;;5092152;28;20073;-36
2021/05/28 07:08:00;;;;;;;70.82;33.35;;;10.00;86.40;;;;;;5093634;28;20468;-36
2021/05/28 07:10:26;;;;;;;56.78;29.00;;;9.80;87.50;;;;;;5093776;28;20405;-35
2021/05/28 07:12:52;;;;;;;64.85;32.80;;;9.20;88.30;;;;;;5093581;28;20059;-36
2021/05/28 07:15:18;;;;;;;56.05;29.98;;;9.30;88.40;;;;;;5093737;28;20117;-35
2021/05/28 07:17:45;;;;;;;47.30;27.77;;;9.90;86.30;;;;;;5092998;28;20043;-36
2021/05/28 07:20:11;;;;;;;42.42;25.55;;;9.80;86.10;;;;;;5093058;28;20024;-36
2021/05/28 07:22:37;;;;;;;44.63;25.73;;;9.70;86.30;;;;;;5092453;28;20515;-36
2021/05/28 07:25:04;;;;;;;42.55;24.77;;;9.90;86.50;;;;;;5093171;28;20099;-35
2021/05/28 07:27:30;;;;;;;34.78;23.35;;;10.10;85.40;;;;;;5091868;28;20051;-36
2021/05/28 07:29:55;;;;;;;47.50;28.52;;;10.20;84.70;;;;;;5092953;28;20095;-36
2021/05/28 07:32:21;;;;;;;59.15;32.38;;;10.10;85.40;;;;;;5093292;28;20020;-36
2021/05/28 07:34:47;;;;;;;64.97;35.65;;;10.30;85.40;;;;;;5092937;28;20440;-36
2021/05/28 07:37:13;;;;;;;61.45;33.78;;;9.90;85.90;;;;;;5092904;28;20036;-37
2021/05/28 07:39:39;;;;;;;63.72;35.17;;;10.20;84.80;;;;;;5093494;28;20063;-37
2021/05/28 07:42:05;;;;;;;63.60;35.78;;;10.00;86.40;;;;;;5094041;28;20166;-36
2021/05/28 07:44:31;;;;;;;51.17;31.15;;;10.30;85.10;;;;;;5094170;28;20519;-36
2021/05/28 07:46:58;;;;;;;45.65;29.45;;;10.70;83.70;;;;;;5093586;28;20024;-42
2021/05/28 07:49:24;;;;;;;43.03;26.60;;;10.80;83.40;;;;;;5093006;28;20028;-37
2021/05/28 07:51:50;;;;;;;45.97;30.00;;;10.60;83.30;;;;;;5092912;28;20388;-35
2021/05/28 07:54:16;;;;;;;41.40;27.45;;;10.70;83.80;;;;;;5093213;28;20024;-35
2021/05/28 07:56:42;;;;;;;35.03;26.13;;;10.70;84.00;;;;;;5092548;28;20052;-37
2021/05/28 07:59:08;;;;;;;35.78;26.75;;;11.50;81.30;;;;;;5091743;28;20380;-36
2021/05/28 08:01:33;;;;;;;33.85;24.98;;;11.50;80.50;;;;;;5092872;28;20035;-36
2021/05/28 08:03:59;;;;;;;41.22;27.05;;;11.60;80.60;;;;;;5093337;28;20032;-36
2021/05/28 08:06:26;;;;;;;34.92;25.23;;;11.30;81.70;;;;;;5092869;28;20437;-36
2021/05/28 08:08:52;;;;;;;33.97;25.15;;;11.40;80.60;;;;;;5091185;28;20054;-36
2021/05/28 08:11:18;;;;;;;34.20;25.42;;;11.60;80.40;;;;;;5092488;28;20043;-36
2021/05/28 08:13:44;;;;;;;35.38;25.20;;;11.70;79.30;;;;;;5093731;28;20023;-35
2021/05/28 08:16:10;;;;;;;33.55;24.80;;;12.00;78.20;;;;;;5092288;28;20028;-38
2021/05/28 08:18:36;;;;;;;30.38;21.70;;;11.80;78.10;;;;;;5091344;28;20044;-37
2021/05/28 08:21:02;;;;;;;31.20;24.00;;;11.60;78.80;;;;;;5093068;28;20365;-37
2021/05/28 08:23:28;;;;;;;30.33;22.05;;;12.10;78.60;;;;;;5092735;28;20032;-36
2021/05/28 08:25:54;;;;;;;26.40;19.50;;;12.90;75.00;;;;;;5092187;28;20133;-35
2021/05/28 08:28:20;;;;;;;28.25;21.10;;;13.40;73.10;;;;;;5092436;28;20028;-36
2021/05/28 08:30:46;;;;;;;31.48;20.33;;;14.10;69.80;;;;;;5091956;28;20020;-37
2021/05/28 08:33:12;;;;;;;26.98;20.10;;;14.30;69.80;;;;;;5092132;28;20116;-35
2021/05/28 08:35:42;;;;;;;24.55;20.13;;;14.90;67.40;;;;;;5092175;28;20393;-36
2021/05/28 08:38:08;;;;;;;28.23;20.63;;;14.50;68.00;;;;;;5090626;28;20024;-37
2021/05/28 08:40:34;;;;;;;24.92;20.42;;;14.90;67.50;;;;;;5092350;28;20024;-36
2021/05/28 08:43:05;;;;;;;24.92;19.95;;;15.50;65.00;;;;;;5092546;28;20027;-37
2021/05/28 08:45:38;;;;;;;24.38;21.10;;;16.00;63.70;;;;;;5092228;28;20024;-36
2021/05/28 08:48:05;;;;;;;25.73;21.48;;;15.30;64.80;;;;;;5091977;28;20073;-37
2021/05/28 08:50:32;;;;;;;26.10;20.85;;;14.70;67.10;;;;;;5091588;28;20020;-37
2021/05/28 08:53:04;;;;;;;27.33;22.75;;;14.80;67.20;;;;;;5090873;28;20077;-36
2021/05/28 08:55:31;;;;;;;25.60;21.75;;;16.40;62.70;;;;;;5091921;28;20079;-37
2021/05/28 08:57:58;;;;;;;28.27;21.27;;;16.70;61.30;;;;;;5092025;28;20021;-36
2021/05/28 09:00:25;;;;;;;24.92;20.95;;;16.30;61.90;;;;;;5092182;28;20020;-36
2021/05/28 09:02:51;;;;;;;26.55;20.70;;;16.20;62.60;;;;;;5092453;28;20031;-35
2021/05/28 09:05:23;;;;;;;24.05;20.88;;;16.70;59.40;;;;;;5092233;28;20103;-37
2021/05/28 09:07:54;;;;;;;27.73;21.92;;;16.50;59.90;;;;;;5091759;28;20016;-35
2021/05/28 09:10:42;;;;;;;24.90;21.25;;;16.20;60.70;;;;;;5095952;28;20028;-38
2021/05/28 09:13:21;;;;;;;25.52;19.83;;;16.10;61.60;;;;;;5096093;28;20488;-36
2021/05/28 09:16:07;;;;;;;22.63;19.77;;;17.30;59.10;;;;;;5095429;28;20115;-36
2021/05/28 09:18:46;;;;;;;23.90;19.17;;;17.30;57.90;;;;;;5095356;28;20028;-36
2021/05/28 09:21:30;;;;;;;21.00;18.60;;;18.20;54.60;;;;;;5095329;28;20028;-36
2021/05/28 09:23:57;;;;;;;22.92;17.92;;;18.60;51.80;;;;;;5095524;28;20020;-36
2021/05/28 09:26:27;;;;;;;19.55;17.00;;;17.60;55.60;;;;;;5093612;28;20035;-35
2021/05/28 09:28:57;;;;;;;27.23;17.42;;;18.10;54.70;;;;;;5094917;28;20376;-35
2021/05/28 09:31:25;;;;;;;18.60;15.00;;;18.40;54.20;;;;;;5093767;28;20051;-37
2021/05/28 09:33:53;;;;;;;19.60;16.48;;;17.30;55.50;;;;;;5093944;28;20024;-36
2021/05/28 09:36:27;;;;;;;22.35;16.17;;;16.80;57.30;;;;;;5095341;28;20476;-36
2021/05/28 09:39:14;;;;;;;20.98;17.00;;;16.80;59.20;;;;;;5095832;28;20020;-36
2021/05/28 09:41:45;;;;;;;21.15;14.50;;;16.50;58.50;;;;;;5095364;28;20086;-37
2021/05/28 09:44:18;;;;;;;17.02;13.10;;;17.10;57.30;;;;;;5095160;28;20028;-38
2021/05/28 09:47:04;;;;;;;15.45;13.02;;;18.10;51.90;;;;;;5095093;28;20089;-36
2021/05/28 09:49:36;;;;;;;13.90;11.15;;;18.90;49.20;;;;;;5093459;28;20456;-36
2021/05/28 09:52:05;;;;;;;16.42;12.55;;;18.40;48.80;;;;;;5095371;28;20476;-36
2021/05/28 09:54:30;;;;;;;13.52;10.82;;;18.50;49.50;;;;;;5095019;28;20063;-37
2021/05/28 09:56:56;;;;;;;18.05;12.38;;;18.10;49.70;;;;;;5095466;28;20071;-36
2021/05/28 09:59:22;;;;;;;15.13;11.70;;;18.00;51.20;;;;;;5095117;28;20044;-36
2021/05/28 10:01:59;;;;;;;12.43;10.32;;;16.30;56.80;;;;;;5094791;28;20031;-36
2021/05/28 10:04:25;;;;;;;11.45;9.95;;;17.50;54.00;;;;;;5094971;28;20046;-37
2021/05/28 10:06:51;;;;;;;14.75;11.43;;;17.60;53.90;;;;;;5094579;28;20024;-36
2021/05/28 10:09:17;;;;;;;18.05;11.52;;;17.80;52.50;;;;;;5094998;28;20016;-37
2021/05/28 10:11:44;;;;;;;14.52;11.00;;;17.90;54.40;;;;;;5093667;28;20024;-36
2021/05/28 10:14:11;;;;;;;15.70;10.73;;;19.10;51.90;;;;;;5094907;28;20065;-35
2021/05/28 10:16:38;;;;;;;12.63;9.02;;;19.90;47.20;;;;;;5092791;28;20429;-37
2021/05/28 10:19:05;;;;;;;11.07;8.10;;;18.90;47.30;;;;;;5094471;28;20020;-36
2021/05/28 10:21:32;;;;;;;11.13;6.65;;;19.10;46.60;;;;;;5094293;28;20101;-36
2021/05/28 10:23:59;;;;;;;8.38;7.20;;;18.60;43.80;;;;;;5095239;28;20028;-37
2021/05/28 10:26:35;;;;;;;10.00;6.68;;;18.40;47.30;;;;;;5094688;28;20047;-37
2021/05/28 10:29:02;;;;;;;7.40;6.63;;;19.00;45.10;;;;;;5094088;28;20020;-37
2021/05/28 10:31:57;;;;;;;7.80;6.85;;;19.50;43.80;;;;;;5093965;28;20029;-37
2021/05/28 10:34:24;;;;;;;11.43;8.45;;;19.80;44.40;;;;;;5092945;28;20380;-36
2021/05/28 10:36:50;;;;;;;8.52;6.53;;;19.70;45.00;;;;;;5094198;28;20158;-37
2021/05/28 10:39:18;;;;;;;7.03;5.88;;;20.20;43.90;;;;;;5094535;28;20027;-35
2021/05/28 10:41:48;;;;;;;10.35;8.48;;;20.50;42.00;;;;;;5092783;28;20030;-36
2021/05/28 10:44:16;;;;;;;11.90;8.77;;;20.20;42.60;;;;;;5093643;28;20091;-37
2021/05/28 10:47:17;;;;;;;10.90;7.40;;;20.40;43.30;;;;;;5094069;28;20032;-36
2021/05/28 10:49:44;;;;;;;11.48;8.18;;;20.10;43.50;;;;;;5094496;28;20511;-36
2021/05/28 10:52:31;;;;;;;9.27;6.95;;;19.70;45.10;;;;;;5093538;28;20036;-37
2021/05/28 10:55:13;;;;;;;9.48;7.20;;;20.00;44.90;;;;;;5094271;28;20550;-35
2021/05/28 10:57:50;;;;;;;7.50;6.63;;;19.80;43.60;;;;;;5094152;28;20024;-36
2021/05/28 11:00:25;;;;;;;11.35;6.90;;;19.90;43.10;;;;;;5094194;28;20020;-35
2021/05/28 11:02:54;;;;;;;8.98;7.03;;;19.10;43.70;;;;;;5093968;28;20020;-36
2021/05/28 11:05:49;;;;;;;12.00;6.90;;;19.80;43.20;;;;;;5094157;28;20039;-36
2021/05/28 11:08:37;;;;;;;10.90;5.70;;;19.90;43.40;;;;;;5094144;28;20156;-36
2021/05/28 11:11:04;;;;;;;8.52;6.85;;;20.30;43.20;;;;;;5095506;28;20076;-36
2021/05/28 11:13:30;;;;;;;8.95;7.38;;;20.60;41.90;;;;;;5093479;28;20024;-35
2021/05/28 11:15:58;;;;;;;10.27;7.28;;;19.30;45.90;;;;;;5094140;28;20034;-38
2021/05/28 11:18:30;;;;;;;8.60;6.30;;;19.90;45.60;;;;;;5094370;28;20463;-36
2021/05/28 11:21:17;;;;;;;7.97;6.10;;;21.30;42.10;;;;;;5094203;28;20051;-37
2021/05/28 11:23:46;;;;;;;10.30;5.63;;;20.70;42.00;;;;;;5093721;28;20027;-36
2021/05/28 11:26:27;;;;;;;5.78;3.92;;;21.30;39.90;;;;;;5093529;28;20027;-36
2021/05/28 11:28:56;;;;;;;6.07;4.78;;;21.80;37.30;;;;;;5094025;28;20037;-36
2021/05/28 11:31:24;;;;;;;5.80;3.95;;;21.30;39.30;;;;;;5093806;28;20081;-35
2021/05/28 11:34:00;;;;;;;6.07;4.63;;;21.00;40.60;;;;;;5093272;28;20103;-36
2021/05/28 11:36:30;;;;;;;9.27;5.22;;;20.80;41.60;;;;;;5092955;28;20081;-38
2021/05/28 11:38:57;;;;;;;7.27;4.93;;;19.80;42.60;;;;;;5092934;28;20107;-37
2021/05/28 11:41:42;;;;;;;7.45;4.22;;;19.90;43.90;;;;;;5092569;28;20036;-35
2021/05/28 11:44:11;;;;;;;4.80;3.60;;;20.80;40.90;;;;;;5093806;28;20031;-37
2021/05/28 11:46:41;;;;;;;4.53;3.83;;;20.10;41.40;;;;;;5091934;28;20032;-38
2021/05/28 11:49:07;;;;;;;4.63;4.22;;;19.90;42.80;;;;;;5093278;28;20031;-38
2021/05/28 11:51:33;;;;;;;5.78;4.00;;;20.20;41.90;;;;;;5093131;28;20034;-36
2021/05/28 11:53:59;;;;;;;5.78;3.60;;;20.40;41.00;;;;;;5093242;28;20016;-36
2021/05/28 11:56:26;;;;;;;5.72;3.88;;;22.00;37.70;;;;;;5092806;28;20055;-35
2021/05/28 11:58:52;;;;;;;5.07;3.58;;;22.50;37.40;;;;;;5092784;28;20484;-36
2021/05/28 12:01:19;;;;;;;4.18;3.10;;;21.40;38.40;;;;;;5092935;28;20028;-37
2021/05/28 12:03:45;;;;;;;7.25;3.35;;;20.70;39.70;;;;;;5093268;28;20146;-37
2021/05/28 12:06:11;;;;;;;4.25;3.33;;;21.20;40.50;;;;;;5092965;28;20063;-36
2021/05/28 12:08:40;;;;;;;5.18;3.90;;;22.40;38.00;;;;;;5091469;28;20024;-36
2021/05/28 12:11:10;;;;;;;4.80;3.25;;;22.20;37.20;;;;;;5093209;28;20095;-36
2021/05/28 12:13:39;;;;;;;4.38;3.28;;;21.70;38.90;;;;;;5091504;28;20065;-36
2021/05/28 12:16:07;;;;;;;3.15;2.85;;;21.80;38.60;;;;;;5093307;28;20043;-36
2021/05/28 12:18:34;;;;;;;2.17;1.98;;;22.80;36.00;;;;;;5092968;28;20016;-36
2021/05/28 12:21:21;;;;;;;3.72;2.40;;;22.50;36.10;;;;;;5092970;28;20033;-36
2021/05/28 12:23:56;;;;;;;3.17;1.92;;;22.30;36.00;;;;;;5095519;28;20025;-37
2021/05/28 12:26:28;;;;;;;5.13;2.28;;;22.80;34.70;;;;;;5094276;28;20028;-36
2021/05/28 12:28:56;;;;;;;3.42;1.75;;;23.10;34.80;;;;;;5093289;28;20016;-38
2021/05/28 12:31:26;;;;;;;2.53;1.90;;;23.60;32.60;;;;;;5091740;28;20020;-35
2021/05/28 12:34:07;;;;;;;2.03;1.83;;;23.70;32.50;;;;;;5092653;28;20028;-36
2021/05/28 12:36:32;;;;;;;;;;;23.70;32.80;;;;;;5091590;28;20111;-36
2021/05/28 12:39:02;;;;;;;2.75;1.95;;;23.40;33.50;;;;;;5092313;28;19988;-35
2021/05/28 12:41:29;;;;;;;1.98;1.80;;;23.70;32.40;;;;;;5092891;28;20028;-35